Time;durP1;ratioP1;P1;durP2;ratioP2;P2;SDS_P1;SDS_P2;PMS_P1;PMS_P2;Temp;Humidity;BMP_temperature;BMP_pressure;BME280_temperature;BME280_humidity;BME280_pressure;Samples;Min_cycle;Max_cycle;Signal;HPM_P1;HPM_P2
2024/02/25 00:00:41;;;;;;;3.47;1.25;;;8.80;99.90;;;;;;5097864;27;20047;-77
2024/02/25 00:03:10;;;;;;;3.55;1.10;;;8.80;99.90;;;;;;5101046;27;20487;-77
2024/02/25 00:05:41;;;;;;;3.10;1.10;;;8.80;99.90;;;;;;5102514;28;20046;-79
2024/02/25 00:08:10;;;;;;;3.00;1.10;;;8.80;99.90;;;;;;5086581;28;20089;-78
2024/02/25 00:10:38;;;;;;;6.50;1.27;;;8.70;99.90;;;;;;5083708;28;20105;-77
2024/02/25 00:13:07;;;;;;;3.08;0.95;;;8.60;99.90;;;;;;5090925;28;20509;-78
2024/02/25 00:15:36;;;;;;;3.25;0.93;;;8.60;99.90;;;;;;5085339;28;20041;-79
2024/02/25 00:18:05;;;;;;;3.08;1.40;;;8.70;99.90;;;;;;5101732;28;20087;-78
2024/02/25 00:20:35;;;;;;;3.95;1.63;;;8.60;99.90;;;;;;5081870;28;20510;-79
2024/02/25 00:23:04;;;;;;;6.38;2.13;;;8.60;99.90;;;;;;5084568;28;20056;-79
2024/02/25 00:25:32;;;;;;;5.10;2.33;;;8.60;99.90;;;;;;5087549;28;20044;-78
2024/02/25 00:28:01;;;;;;;6.72;2.70;;;8.60;99.90;;;;;;5087523;28;20509;-79
2024/02/25 00:30:39;;;;;;;6.93;3.15;;;8.60;99.90;;;;;;5088239;28;20067;-79
2024/02/25 00:33:07;;;;;;;8.07;3.20;;;8.60;99.90;;;;;;5100409;28;20073;-79
2024/02/25 00:35:38;;;;;;;6.50;3.25;;;8.50;99.90;;;;;;5102227;28;20032;-77
2024/02/25 00:38:06;;;;;;;7.70;3.13;;;8.50;99.90;;;;;;5084031;28;20043;-80
2024/02/25 00:40:35;;;;;;;7.07;2.92;;;8.50;99.90;;;;;;5087043;28;20601;-78
2024/02/25 00:43:23;;;;;;;6.85;2.97;;;8.40;99.90;;;;;;5087637;28;20052;-78
2024/02/25 00:45:51;;;;;;;8.00;2.22;;;8.40;99.90;;;;;;5087293;28;20390;-79
2024/02/25 00:48:20;;;;;;;7.97;2.17;;;8.40;99.90;;;;;;5087190;28;20495;-80
2024/02/25 00:50:50;;;;;;;6.55;2.35;;;8.30;99.90;;;;;;5085430;28;20519;-78
2024/02/25 00:53:20;;;;;;;5.18;2.20;;;8.30;99.90;;;;;;5084919;28;20056;-77
2024/02/25 00:55:49;;;;;;;5.95;3.08;;;8.20;99.90;;;;;;5084586;28;20043;-78
2024/02/25 00:58:17;;;;;;;5.72;2.70;;;8.20;99.90;;;;;;5084183;28;20143;-78
2024/02/25 01:00:46;;;;;;;6.07;2.30;;;8.20;99.90;;;;;;5091866;28;20052;-78
2024/02/25 01:03:17;;;;;;;5.47;2.08;;;8.20;99.90;;;;;;5086668;28;20055;-78
2024/02/25 01:05:50;;;;;;;4.43;1.95;;;8.10;99.90;;;;;;5085431;28;20498;-78
2024/02/25 01:08:18;;;;;;;4.57;1.67;;;8.10;99.90;;;;;;5090364;28;20068;-79
2024/02/25 01:10:47;;;;;;;5.03;1.63;;;8.10;99.90;;;;;;5101160;28;20036;-77
2024/02/25 01:13:17;;;;;;;2.90;1.20;;;8.10;99.90;;;;;;5094976;28;20044;-80
2024/02/25 01:15:46;;;;;;;3.78;2.63;;;8.10;99.90;;;;;;5087898;28;20037;-78
2024/02/25 01:18:14;;;;;;;3.13;1.30;;;8.10;99.90;;;;;;5083219;28;20052;-78
2024/02/25 01:20:43;;;;;;;3.25;1.42;;;8.10;99.90;;;;;;5089456;28;20067;-78
2024/02/25 01:23:13;;;;;;;3.45;1.30;;;8.10;99.90;;;;;;5087041;28;20135;-78
2024/02/25 01:25:41;;;;;;;5.63;1.40;;;8.10;99.90;;;;;;5086141;28;20048;-77
2024/02/25 01:28:12;;;;;;;5.78;2.65;;;8.10;99.90;;;;;;5086682;28;20056;-78
2024/02/25 01:30:42;;;;;;;5.82;2.15;;;8.10;99.90;;;;;;5101690;28;20048;-78
2024/02/25 01:33:12;;;;;;;5.40;2.30;;;8.10;99.90;;;;;;5087460;28;20114;-78
2024/02/25 01:35:43;;;;;;;4.22;2.00;;;8.10;99.90;;;;;;5089443;28;20106;-77
2024/02/25 01:38:13;;;;;;;3.47;1.70;;;8.10;99.90;;;;;;5092028;28;20487;-77
2024/02/25 01:40:41;;;;;;;4.30;1.88;;;8.00;99.90;;;;;;5094208;28;20075;-75
2024/02/25 01:43:11;;;;;;;4.03;1.70;;;8.00;99.90;;;;;;5092210;28;20119;-75
2024/02/25 01:45:39;;;;;;;5.32;1.90;;;8.00;99.90;;;;;;5090126;28;20036;-75
2024/02/25 01:48:09;;;;;;;6.80;2.28;;;7.90;99.90;;;;;;5090462;28;20036;-75
2024/02/25 01:50:39;;;;;;;4.53;2.30;;;8.00;99.90;;;;;;5090334;28;20398;-75
2024/02/25 01:53:10;;;;;;;6.55;2.78;;;7.90;99.90;;;;;;5091558;28;20151;-74
2024/02/25 01:55:42;;;;;;;6.35;2.60;;;7.90;99.90;;;;;;5085851;28;20051;-75
2024/02/25 01:58:11;;;;;;;9.43;2.83;;;7.80;99.90;;;;;;5089654;28;20067;-75
2024/02/25 02:00:40;;;;;;;7.93;2.55;;;7.80;99.90;;;;;;5087556;28;20631;-75
2024/02/25 02:03:09;;;;;;;7.00;2.55;;;7.80;99.90;;;;;;5093094;28;20395;-75
2024/02/25 02:05:38;;;;;;;5.07;2.08;;;7.80;99.90;;;;;;5085342;28;20403;-75
2024/02/25 02:08:07;;;;;;;5.85;2.30;;;7.70;99.90;;;;;;5076906;28;20086;-75
2024/02/25 02:10:36;;;;;;;7.50;3.00;;;7.70;99.90;;;;;;5082016;28;20044;-75
2024/02/25 02:13:07;;;;;;;6.82;2.83;;;7.70;99.90;;;;;;5084540;28;20040;-74
2024/02/25 02:15:35;;;;;;;7.72;2.42;;;7.70;99.90;;;;;;5100389;28;20055;-75
2024/02/25 02:18:04;;;;;;;7.25;2.65;;;7.60;99.90;;;;;;5093811;28;20139;-75
2024/02/25 02:20:33;;;;;;;4.75;2.30;;;7.70;99.90;;;;;;5094291;28;20046;-75
2024/02/25 02:23:03;;;;;;;6.28;2.35;;;7.60;99.90;;;;;;5092894;28;20457;-75
2024/02/25 02:25:31;;;;;;;4.05;1.90;;;7.60;99.90;;;;;;5094027;28;20502;-75
2024/02/25 02:28:00;;;;;;;7.25;2.67;;;7.60;99.90;;;;;;5092830;28;20135;-75
2024/02/25 02:30:28;;;;;;;5.95;2.40;;;7.60;99.90;;;;;;5092722;28;20094;-76
2024/02/25 02:32:57;;;;;;;6.97;2.60;;;7.60;99.90;;;;;;5093930;28;20028;-75
2024/02/25 02:35:25;;;;;;;6.00;2.60;;;7.50;99.90;;;;;;5098703;28;20051;-75
2024/02/25 02:37:54;;;;;;;5.03;2.10;;;7.50;99.90;;;;;;5093038;28;20052;-75
2024/02/25 02:40:24;;;;;;;4.80;2.03;;;7.50;99.90;;;;;;5094250;28;20115;-76
2024/02/25 02:42:54;;;;;;;7.22;2.10;;;7.50;99.90;;;;;;5092325;28;20090;-75
2024/02/25 02:45:23;;;;;;;3.40;1.83;;;7.50;99.90;;;;;;5091630;28;20523;-76
2024/02/25 02:47:51;;;;;;;4.93;1.88;;;7.40;99.90;;;;;;5087022;28;20127;-75
2024/02/25 02:50:20;;;;;;;5.60;1.92;;;7.40;99.90;;;;;;5090822;28;20126;-76
2024/02/25 02:52:48;;;;;;;4.85;1.98;;;7.40;99.90;;;;;;5087942;28;20071;-76
2024/02/25 02:55:17;;;;;;;5.43;2.30;;;7.40;99.90;;;;;;5087744;28;20036;-76
2024/02/25 02:57:47;;;;;;;6.18;1.90;;;7.40;99.90;;;;;;5088158;28;20089;-76
2024/02/25 03:00:16;;;;;;;5.40;2.10;;;7.40;99.90;;;;;;5102587;28;20518;-76
2024/02/25 03:02:44;;;;;;;4.88;1.83;;;7.40;99.90;;;;;;5111684;28;20123;-76
2024/02/25 03:05:13;;;;;;;7.15;3.00;;;7.30;99.90;;;;;;5096714;28;20065;-76
2024/02/25 03:07:42;;;;;;;3.92;1.88;;;7.30;99.90;;;;;;5096628;28;20052;-76
2024/02/25 03:10:13;;;;;;;6.00;2.47;;;7.30;99.90;;;;;;5097703;28;20046;-76
2024/02/25 03:12:42;;;;;;;7.30;1.90;;;7.30;99.90;;;;;;5096507;28;20109;-76
2024/02/25 03:15:12;;;;;;;6.72;2.17;;;7.20;99.90;;;;;;5096590;28;20583;-76
2024/02/25 03:17:41;;;;;;;6.82;2.83;;;7.20;99.90;;;;;;5096484;28;20178;-76
2024/02/25 03:20:11;;;;;;;5.95;2.40;;;7.20;99.90;;;;;;5096592;28;20051;-76
2024/02/25 03:22:40;;;;;;;6.00;1.92;;;7.20;99.90;;;;;;5096308;28;20044;-76
2024/02/25 03:25:09;;;;;;;4.72;2.08;;;7.20;99.90;;;;;;5097380;28;20101;-76
2024/02/25 03:27:39;;;;;;;6.60;2.60;;;7.20;99.90;;;;;;5097341;28;20442;-77
2024/02/25 03:30:08;;;;;;;6.95;2.50;;;7.20;99.90;;;;;;5096427;28;20415;-75
2024/02/25 03:32:40;;;;;;;5.93;2.63;;;7.20;99.90;;;;;;5097176;28;20077;-76
2024/02/25 03:35:09;;;;;;;7.47;2.38;;;7.20;99.90;;;;;;5097104;28;20048;-76
2024/02/25 03:37:39;;;;;;;4.40;2.22;;;7.10;99.90;;;;;;5097726;28;20040;-76
2024/02/25 03:40:09;;;;;;;3.85;1.63;;;7.10;99.90;;;;;;5097708;28;20040;-76
2024/02/25 03:42:37;;;;;;;5.68;1.48;;;7.10;99.90;;;;;;5113389;28;20036;-76
2024/02/25 03:45:06;;;;;;;7.13;2.60;;;7.10;99.90;;;;;;5096240;28;20076;-76
2024/02/25 03:47:34;;;;;;;8.07;2.03;;;7.10;99.90;;;;;;5096601;28;20071;-76
2024/02/25 03:50:05;;;;;;;5.13;2.58;;;7.00;99.90;;;;;;5094554;28;20044;-76
2024/02/25 03:52:34;;;;;;;6.35;1.95;;;7.00;99.90;;;;;;5104139;28;20472;-76
2024/02/25 03:55:02;;;;;;;5.55;2.13;;;7.00;99.90;;;;;;5096610;28;20147;-75
2024/02/25 03:57:31;;;;;;;5.70;2.38;;;7.00;99.90;;;;;;5096433;28;20093;-76
2024/02/25 03:59:59;;;;;;;4.53;2.08;;;6.40;99.90;;;;;;5096754;28;20556;-75
2024/02/25 04:02:31;;;;;;;6.63;2.60;;;7.00;99.90;;;;;;5097822;28;20044;-75
2024/02/25 04:05:00;;;;;;;8.73;3.17;;;6.90;99.90;;;;;;5097824;28;20514;-75
2024/02/25 04:07:30;;;;;;;5.90;2.97;;;6.90;99.90;;;;;;5097386;28;20058;-76
2024/02/25 04:09:58;;;;;;;18.48;6.32;;;6.80;99.90;;;;;;5096841;28;20044;-76
2024/02/25 04:12:33;;;;;;;16.83;7.10;;;6.80;99.90;;;;;;5098577;28;20044;-77
2024/02/25 04:15:01;;;;;;;13.77;6.45;;;6.70;99.90;;;;;;5098939;28;20075;-76
2024/02/25 04:17:31;;;;;;;15.15;5.03;;;6.70;99.90;;;;;;5099851;28;20060;-76
2024/02/25 04:20:00;;;;;;;15.70;5.68;;;6.70;99.90;;;;;;5099945;28;20051;-76
2024/02/25 04:22:30;;;;;;;15.45;5.82;;;6.80;99.90;;;;;;5114977;28;20048;-76
2024/02/25 04:24:59;;;;;;;14.68;5.85;;;6.80;99.90;;;;;;5097798;28;20477;-76
2024/02/25 04:27:27;;;;;;;14.55;5.65;;;6.70;99.90;;;;;;5099517;28;20044;-76
2024/02/25 04:29:55;;;;;;;13.55;6.32;;;6.70;99.90;;;;;;5104651;28;20052;-77
2024/02/25 04:32:24;;;;;;;16.00;7.05;;;6.70;99.90;;;;;;5099126;28;20044;-76
2024/02/25 04:34:53;;;;;;;14.52;7.15;;;6.60;99.90;;;;;;5099775;28;20040;-77
2024/02/25 04:37:21;;;;;;;14.20;6.13;;;6.60;99.90;;;;;;5099805;28;20130;-76
2024/02/25 04:39:51;;;;;;;11.10;5.18;;;6.60;99.90;;;;;;5098236;28;20060;-77
2024/02/25 04:42:19;;;;;;;13.93;5.78;;;6.60;99.90;;;;;;5098463;28;20068;-77
2024/02/25 04:44:48;;;;;;;11.73;5.07;;;6.60;99.90;;;;;;5099517;28;20036;-76
2024/02/25 04:47:16;;;;;;;10.75;4.50;;;6.60;99.90;;;;;;5097810;28;20151;-76
2024/02/25 04:49:47;;;;;;;11.13;4.63;;;6.60;99.90;;;;;;5099124;28;20527;-77
2024/02/25 04:52:16;;;;;;;15.95;6.75;;;6.60;99.90;;;;;;5099796;28;20044;-76
2024/02/25 04:54:45;;;;;;;14.60;6.82;;;6.70;99.90;;;;;;5099568;28;20380;-76
2024/02/25 04:57:15;;;;;;;16.83;6.40;;;6.70;99.90;;;;;;5099494;28;20052;-76
2024/02/25 04:59:44;;;;;;;12.63;5.90;;;6.70;99.90;;;;;;5099406;28;20050;-76
2024/02/25 05:02:13;;;;;;;12.50;5.05;;;6.70;99.90;;;;;;5096782;28;20044;-77
2024/02/25 05:04:42;;;;;;;9.05;4.93;;;6.70;99.90;;;;;;5096169;28;20071;-77
2024/02/25 05:07:10;;;;;;;10.80;5.13;;;6.70;99.90;;;;;;5096930;28;20048;-76
2024/02/25 05:09:38;;;;;;;8.73;4.13;;;6.80;99.90;;;;;;5097038;28;20044;-77
2024/02/25 05:12:08;;;;;;;10.52;4.50;;;6.70;99.90;;;;;;5114022;28;20040;-77
2024/02/25 05:14:37;;;;;;;11.27;4.93;;;6.80;99.90;;;;;;5097043;28;20048;-76
2024/02/25 05:17:06;;;;;;;11.38;5.00;;;6.80;99.90;;;;;;5090296;28;20045;-77
2024/02/25 05:19:34;;;;;;;7.93;4.43;;;6.80;99.90;;;;;;5082413;28;20048;-77
2024/02/25 05:22:04;;;;;;;9.45;4.97;;;6.70;99.90;;;;;;5096996;28;20503;-77
2024/02/25 05:24:32;;;;;;;11.85;5.68;;;6.70;99.90;;;;;;5098485;28;20047;-77
2024/02/25 05:27:01;;;;;;;10.02;5.38;;;6.60;99.90;;;;;;5098675;28;20109;-76
2024/02/25 05:29:30;;;;;;;12.32;5.75;;;6.70;99.90;;;;;;5098165;28;20036;-76
2024/02/25 05:32:00;;;;;;;12.82;5.95;;;6.70;99.90;;;;;;5113806;28;20052;-77
2024/02/25 05:34:29;;;;;;;11.57;5.47;;;6.80;99.90;;;;;;5097573;28;20044;-77
2024/02/25 05:36:57;;;;;;;13.57;6.28;;;6.80;99.90;;;;;;5095872;28;20503;-76
2024/02/25 05:39:26;;;;;;;17.00;6.88;;;6.80;99.90;;;;;;5096410;28;20044;-77
2024/02/25 05:41:54;;;;;;;21.15;8.13;;;6.80;99.90;;;;;;5096473;28;20055;-77
2024/02/25 05:44:23;;;;;;;22.02;9.50;;;6.80;99.90;;;;;;5097851;28;20032;-77
2024/02/25 05:46:52;;;;;;;21.38;9.07;;;6.80;99.90;;;;;;5098427;28;20032;-77
2024/02/25 05:49:22;;;;;;;23.17;10.10;;;6.80;99.90;;;;;;5097138;28;20138;-77
2024/02/25 05:51:50;;;;;;;24.40;9.52;;;6.80;99.90;;;;;;5098615;28;20513;-78
2024/02/25 05:54:19;;;;;;;15.98;7.85;;;6.80;99.90;;;;;;5098608;28;20036;-76
2024/02/25 05:56:47;;;;;;;19.27;9.07;;;6.90;99.90;;;;;;5096242;28;20062;-76
2024/02/25 05:59:16;;;;;;;19.42;8.40;;;6.90;99.90;;;;;;5095818;28;20477;-76
2024/02/25 06:01:48;;;;;;;20.55;9.98;;;6.90;99.90;;;;;;5062721;28;20051;-76
2024/02/25 06:04:19;;;;;;;18.80;8.13;;;6.90;99.90;;;;;;5095426;28;20040;-76
2024/02/25 06:06:52;;;;;;;20.42;6.93;;;7.00;99.90;;;;;;5111994;28;20081;-76
2024/02/25 06:09:27;;;;;;;15.13;6.15;;;7.00;99.90;;;;;;5093828;28;20044;-78
2024/02/25 06:11:56;;;;;;;15.07;6.45;;;7.00;99.90;;;;;;5094468;28;20060;-77
2024/02/25 06:14:24;;;;;;;14.35;6.95;;;7.00;99.90;;;;;;5094212;28;20106;-76
2024/02/25 06:16:53;;;;;;;12.70;6.20;;;7.10;99.90;;;;;;5077509;28;20534;-76
2024/02/25 06:19:21;;;;;;;14.38;6.53;;;7.10;99.90;;;;;;5094487;28;20048;-77
2024/02/25 06:21:51;;;;;;;14.65;6.53;;;7.10;99.90;;;;;;5094626;28;20113;-77
2024/02/25 06:24:20;;;;;;;13.82;6.55;;;7.20;99.90;;;;;;5077216;28;20503;-77
2024/02/25 06:26:48;;;;;;;15.07;6.60;;;7.20;99.90;;;;;;5094043;28;20503;-77
2024/02/25 06:29:18;;;;;;;15.23;7.10;;;7.30;99.90;;;;;;5093068;28;20542;-77
2024/02/25 06:31:46;;;;;;;16.80;7.20;;;7.30;99.90;;;;;;5076670;28;20146;-77
2024/02/25 06:34:15;;;;;;;29.30;8.48;;;7.30;99.90;;;;;;5092343;28;20094;-77
2024/02/25 06:36:45;;;;;;;17.45;8.80;;;7.30;99.90;;;;;;5075913;28;20048;-76
2024/02/25 06:39:15;;;;;;;17.58;8.20;;;7.20;99.90;;;;;;5093245;28;20091;-77
2024/02/25 06:41:43;;;;;;;16.63;6.72;;;7.20;99.90;;;;;;5075207;28;20051;-77
2024/02/25 06:44:11;;;;;;;14.90;6.05;;;7.20;99.90;;;;;;5075188;28;20044;-77
2024/02/25 06:46:40;;;;;;;10.80;5.40;;;7.20;99.90;;;;;;5092136;28;20473;-77
2024/02/25 06:49:09;;;;;;;9.82;5.50;;;7.10;99.90;;;;;;5091850;28;20495;-77
2024/02/25 06:51:37;;;;;;;13.68;5.13;;;7.20;99.90;;;;;;5091785;28;20178;-77
2024/02/25 06:54:06;;;;;;;13.38;5.97;;;7.20;99.90;;;;;;5086846;28;20399;-77
2024/02/25 06:56:36;;;;;;;15.05;5.90;;;7.20;99.90;;;;;;5092763;28;20044;-77
2024/02/25 06:59:04;;;;;;;29.52;11.85;;;7.20;99.90;;;;;;5094068;28;20403;-77
2024/02/25 07:01:33;;;;;;;14.15;5.68;;;7.20;99.90;;;;;;5092727;28;20051;-77
2024/02/25 07:04:01;;;;;;;9.35;3.55;;;7.20;99.90;;;;;;5095033;28;20036;-77
2024/02/25 07:06:30;;;;;;;10.30;4.32;;;7.20;99.90;;;;;;5092711;28;20066;-77
2024/02/25 07:08:58;;;;;;;11.27;4.53;;;7.70;99.90;;;;;;5094276;28;20054;-78
2024/02/25 07:11:28;;;;;;;16.00;6.13;;;7.30;99.90;;;;;;5109689;28;20086;-77
2024/02/25 07:14:06;;;;;;;20.85;9.73;;;7.40;99.90;;;;;;5093783;28;20123;-78
2024/02/25 07:16:34;;;;;;;28.55;11.73;;;7.40;99.90;;;;;;5093722;28;20503;-77
2024/02/25 07:19:03;;;;;;;37.10;15.13;;;7.50;99.90;;;;;;5092134;28;20144;-78
2024/02/25 07:21:31;;;;;;;31.17;12.35;;;7.60;99.90;;;;;;5093400;28;20047;-77
2024/02/25 07:24:00;;;;;;;27.40;12.65;;;7.70;99.90;;;;;;5092086;28;20048;-78
2024/02/25 07:26:28;;;;;;;22.70;9.88;;;7.70;99.90;;;;;;5092181;28;20052;-77
2024/02/25 07:28:58;;;;;;;24.80;11.15;;;7.80;99.90;;;;;;5093246;28;20132;-78
2024/02/25 07:31:27;;;;;;;22.98;9.85;;;7.80;99.90;;;;;;5091938;28;20090;-77
2024/02/25 07:33:55;;;;;;;16.10;7.13;;;7.90;99.90;;;;;;5083892;28;20052;-77
2024/02/25 07:36:24;;;;;;;12.80;5.03;;;8.00;99.90;;;;;;5086058;28;20033;-77
2024/02/25 07:38:52;;;;;;;11.95;5.10;;;8.20;99.90;;;;;;5091578;28;20048;-78
2024/02/25 07:41:21;;;;;;;12.50;5.78;;;8.30;99.90;;;;;;5084073;28;20048;-77
2024/02/25 07:43:50;;;;;;;10.02;3.90;;;8.40;99.90;;;;;;5083844;28;20052;-77
2024/02/25 07:46:24;;;;;;;8.90;3.92;;;8.50;99.90;;;;;;5085486;28;20044;-78
2024/02/25 07:48:53;;;;;;;8.82;3.72;;;8.60;99.90;;;;;;5089308;28;20044;-77
2024/02/25 07:51:22;;;;;;;8.75;3.85;;;8.70;99.90;;;;;;5105987;27;20043;-77
2024/02/25 07:53:51;;;;;;;38.95;13.18;;;8.80;99.90;;;;;;5071506;28;20503;-77
2024/02/25 07:56:19;;;;;;;18.42;6.97;;;8.80;99.90;;;;;;5102698;28;20041;-78
2024/02/25 07:58:48;;;;;;;14.13;6.05;;;8.90;99.90;;;;;;5088932;28;20587;-77
2024/02/25 08:01:17;;;;;;;11.15;4.55;;;9.10;99.90;;;;;;5079203;28;20135;-80
2024/02/25 08:03:47;;;;;;;8.73;3.80;;;9.40;99.90;;;;;;5088951;28;20036;-79
2024/02/25 08:06:24;;;;;;;9.70;3.47;;;9.70;99.90;;;;;;5099260;28;20128;-77
2024/02/25 08:08:53;;;;;;;6.72;2.72;;;9.90;99.90;;;;;;5102017;28;20059;-80
2024/02/25 08:11:21;;;;;;;7.72;3.50;;;10.10;99.90;;;;;;5088593;28;20571;-79
2024/02/25 08:13:51;;;;;;;11.00;3.22;;;10.20;99.90;;;;;;5085917;28;20493;-79
2024/02/25 08:16:21;;;;;;;7.55;2.78;;;10.50;99.90;;;;;;5082448;28;20062;-77
2024/02/25 08:18:55;;;;;;;8.02;3.22;;;10.50;99.90;;;;;;5100426;28;20084;-77
2024/02/25 08:21:24;;;;;;;4.85;2.58;;;10.50;99.90;;;;;;5081569;28;20040;-79
2024/02/25 08:23:52;;;;;;;6.15;2.75;;;10.50;99.90;;;;;;5083672;28;20445;-79
2024/02/25 08:26:21;;;;;;;7.07;2.97;;;10.40;99.90;;;;;;5089452;28;20049;-79
2024/02/25 08:28:50;;;;;;;8.13;3.30;;;10.50;99.90;;;;;;5102122;28;21083;-78
2024/02/25 08:31:19;;;;;;;6.47;2.88;;;10.60;99.90;;;;;;5088530;28;20502;-79
2024/02/25 08:33:47;;;;;;;8.13;3.92;;;10.80;99.90;;;;;;5086624;28;20047;-79
2024/02/25 08:36:17;;;;;;;6.93;2.75;;;10.90;99.90;;;;;;5089022;28;20122;-79
2024/02/25 08:38:48;;;;;;;7.93;3.15;;;11.00;99.90;;;;;;5087265;28;20100;-80
2024/02/25 08:41:16;;;;;;;11.98;3.83;;;11.10;99.90;;;;;;5104189;27;20048;-81
2024/02/25 08:43:45;;;;;;;4.78;2.47;;;11.30;99.90;;;;;;5101248;28;20952;-79
2024/02/25 08:46:13;;;;;;;6.28;2.40;;;11.40;99.90;;;;;;5104703;28;20054;-79
2024/02/25 08:48:41;;;;;;;6.13;2.83;;;11.50;99.90;;;;;;5106351;28;20044;-80
2024/02/25 08:51:10;;;;;;;7.40;2.85;;;11.60;99.90;;;;;;5085252;28;20439;-78
2024/02/25 08:53:40;;;;;;;7.50;2.85;;;11.60;99.90;;;;;;5086480;28;20169;-78
2024/02/25 08:56:09;;;;;;;6.30;3.13;;;11.70;99.90;;;;;;5089478;28;20080;-79
2024/02/25 08:58:37;;;;;;;8.48;2.97;;;11.70;99.90;;;;;;5078743;28;20064;-80
2024/02/25 09:01:06;;;;;;;9.10;2.60;;;11.50;99.90;;;;;;5104444;27;20477;-80
2024/02/25 09:03:34;;;;;;;5.03;2.10;;;11.50;99.90;;;;;;5085380;28;20045;-78
2024/02/25 09:06:18;;;;;;;5.22;2.45;;;11.50;99.90;;;;;;5090329;28;20494;-81
2024/02/25 09:08:48;;;;;;;4.65;2.17;;;11.60;99.90;;;;;;5084911;28;20052;-76
2024/02/25 09:11:16;;;;;;;5.85;2.67;;;11.50;99.90;;;;;;5081193;28;20406;-79
2024/02/25 09:13:45;;;;;;;5.47;2.47;;;11.50;99.90;;;;;;5085526;28;20484;-80
2024/02/25 09:16:13;;;;;;;4.88;2.33;;;11.50;99.90;;;;;;5103534;28;20036;-80
2024/02/25 09:18:42;;;;;;;8.77;4.20;;;11.50;99.90;;;;;;5087427;28;20052;-81
2024/02/25 09:21:11;;;;;;;9.90;4.55;;;11.50;99.90;;;;;;5084209;28;20492;-76
2024/02/25 09:23:39;;;;;;;12.15;5.50;;;11.60;99.90;;;;;;5100472;27;20144;-76
2024/02/25 09:26:10;;;;;;;6.80;2.80;;;11.80;99.90;;;;;;5099546;28;20040;-79
2024/02/25 09:28:51;;;;;;;8.27;3.78;;;11.90;99.90;;;;;;5084521;28;20419;-79
2024/02/25 09:31:20;;;;;;;7.22;4.00;;;12.00;99.90;;;;;;5080062;28;20114;-78
2024/02/25 09:33:49;;;;;;;7.05;3.88;;;12.10;99.90;;;;;;5100101;27;20036;-77
2024/02/25 09:36:23;;;;;;;12.65;3.50;;;12.10;99.90;;;;;;5047446;28;20048;-77
2024/02/25 09:38:52;;;;;;;6.90;3.10;;;12.20;99.90;;;;;;5084661;28;20406;-81
2024/02/25 09:41:27;;;;;;;6.15;2.83;;;12.20;99.90;;;;;;5082067;28;20055;-80
2024/02/25 09:43:56;;;;;;;10.73;4.60;;;12.10;99.90;;;;;;5078949;28;20048;-79
2024/02/25 09:46:25;;;;;;;16.08;6.55;;;12.20;99.90;;;;;;5086474;28;20037;-78
2024/02/25 09:48:54;;;;;;;12.90;5.32;;;12.30;99.90;;;;;;5090406;28;20071;-80
2024/02/25 09:51:24;;;;;;;5.93;2.75;;;12.30;99.90;;;;;;5087958;28;20052;-77
2024/02/25 09:53:54;;;;;;;6.45;2.72;;;12.30;99.90;;;;;;5090437;28;20047;-79
2024/02/25 09:56:24;;;;;;;4.10;2.20;;;12.20;99.90;;;;;;5086307;28;20086;-79
2024/02/25 09:58:53;;;;;;;3.85;2.13;;;12.10;99.90;;;;;;5104530;27;20534;-80
2024/02/25 10:01:31;;;;;;;5.68;2.40;;;12.10;99.90;;;;;;5081268;28;20044;-80
2024/02/25 10:04:00;;;;;;;8.88;3.53;;;12.10;99.90;;;;;;5093380;28;20515;-77
2024/02/25 10:06:37;;;;;;;6.75;3.40;;;12.20;99.90;;;;;;5085509;28;20453;-78
2024/02/25 10:09:08;;;;;;;6.80;3.35;;;12.20;99.90;;;;;;5098850;28;20044;-80
2024/02/25 10:11:38;;;;;;;5.85;3.00;;;12.20;99.90;;;;;;5101480;28;20499;-77
2024/02/25 10:14:07;;;;;;;9.73;4.57;;;12.10;99.90;;;;;;5087262;28;20048;-78
2024/02/25 10:16:39;;;;;;;6.30;3.20;;;12.20;99.90;;;;;;5087650;28;20499;-77
2024/02/25 10:19:10;;;;;;;5.72;2.40;;;12.20;99.90;;;;;;5082333;28;20415;-76
2024/02/25 10:21:39;;;;;;;6.10;3.13;;;12.30;99.90;;;;;;5082477;28;20036;-81
2024/02/25 10:24:08;;;;;;;10.20;3.50;;;12.30;99.90;;;;;;5085018;28;20105;-77
2024/02/25 10:26:38;;;;;;;6.15;3.08;;;12.40;99.90;;;;;;5083527;28;20037;-79
2024/02/25 10:29:09;;;;;;;7.90;3.30;;;12.60;99.90;;;;;;5065934;28;20055;-79
2024/02/25 10:31:38;;;;;;;5.57;2.88;;;12.80;99.90;;;;;;5044038;28;20079;-76
2024/02/25 10:34:09;;;;;;;6.60;3.58;;;12.80;99.90;;;;;;5048496;28;20095;-80
2024/02/25 10:36:43;;;;;;;6.43;3.70;;;12.70;99.90;;;;;;5045315;28;20094;-77
2024/02/25 10:39:12;;;;;;;5.90;4.00;;;12.80;99.90;;;;;;5044877;28;20381;-78
2024/02/25 10:41:44;;;;;;;6.05;3.38;;;12.90;99.90;;;;;;5049057;28;20051;-79
2024/02/25 10:44:17;;;;;;;6.27;4.00;;;12.90;99.90;;;;;;5058999;28;20434;-79
2024/02/25 10:46:50;;;;;;;5.95;3.25;;;13.00;99.90;;;;;;5063373;28;20474;-78
2024/02/25 10:49:19;;;;;;;5.60;3.30;;;13.10;99.90;;;;;;5061897;28;20063;-78
2024/02/25 10:51:51;;;;;;;6.68;3.80;;;13.00;99.90;;;;;;5046294;28;20106;-77
2024/02/25 10:54:24;;;;;;;6.57;3.50;;;12.90;99.90;;;;;;5059537;28;20595;-80
2024/02/25 10:56:54;;;;;;;6.32;3.65;;;12.80;99.90;;;;;;5061815;28;20147;-76
2024/02/25 10:59:24;;;;;;;4.60;3.00;;;12.80;99.90;;;;;;5060710;28;20053;-80
2024/02/25 11:01:53;;;;;;;5.63;2.85;;;12.70;99.90;;;;;;5046363;28;20045;-77
2024/02/25 11:04:24;;;;;;;12.95;6.13;;;12.80;99.90;;;;;;5046250;28;20048;-75
2024/02/25 11:06:56;;;;;;;17.42;7.07;;;12.90;99.90;;;;;;5063010;28;20055;-75
2024/02/25 11:09:24;;;;;;;13.55;6.90;;;12.90;99.90;;;;;;5084486;28;20051;-77
2024/02/25 11:12:14;;;;;;;7.13;4.53;;;12.80;99.90;;;;;;5085070;28;20151;-78
2024/02/25 11:14:49;;;;;;;10.02;4.15;;;12.90;99.90;;;;;;5085503;28;20040;-76
2024/02/25 11:17:21;;;;;;;6.68;3.67;;;12.90;99.90;;;;;;5084708;28;20067;-76
2024/02/25 11:20:04;;;;;;;7.30;3.97;;;12.80;99.90;;;;;;5085202;28;20546;-76
2024/02/25 11:22:43;;;;;;;4.07;2.42;;;12.90;99.90;;;;;;5102970;28;20284;-76
2024/02/25 11:25:36;;;;;;;6.15;2.95;;;13.00;99.90;;;;;;5087092;28;20063;-76
2024/02/25 11:28:09;;;;;;;7.38;3.25;;;13.20;99.90;;;;;;5082446;28;20032;-78
2024/02/25 11:30:43;;;;;;;8.55;4.07;;;13.30;99.90;;;;;;5086152;28;20094;-76
2024/02/25 11:33:48;;;;;;;13.00;4.97;;;13.40;99.90;;;;;;5104657;28;20048;-76
2024/02/25 11:36:21;;;;;;;8.23;4.05;;;13.40;99.90;;;;;;5088670;28;20044;-77
2024/02/25 11:38:50;;;;;;;7.18;4.22;;;13.50;99.90;;;;;;5086860;28;20048;-75
2024/02/25 11:41:22;;;;;;;7.05;3.72;;;13.50;99.90;;;;;;5087432;28;20076;-77
2024/02/25 11:43:53;;;;;;;4.97;3.13;;;13.60;99.90;;;;;;5102913;28;20055;-78
2024/02/25 11:46:22;;;;;;;6.97;3.33;;;13.70;99.90;;;;;;5086386;28;20584;-79
2024/02/25 11:48:51;;;;;;;7.18;3.13;;;13.70;99.90;;;;;;5080666;28;20048;-75
2024/02/25 11:51:19;;;;;;;6.07;3.67;;;13.80;99.90;;;;;;5089841;28;20511;-76
2024/02/25 11:53:51;;;;;;;5.65;2.75;;;13.70;99.90;;;;;;5100675;27;20105;-78
2024/02/25 11:56:20;;;;;;;5.82;3.42;;;13.70;99.90;;;;;;5086469;28;20380;-76
2024/02/25 11:58:49;;;;;;;4.72;2.67;;;13.60;99.90;;;;;;5099020;28;20052;-77
2024/02/25 12:01:21;;;;;;;3.70;2.50;;;13.60;99.90;;;;;;5103070;28;20045;-75
2024/02/25 12:03:50;;;;;;;6.72;3.10;;;13.60;99.90;;;;;;5084111;28;20054;-74
2024/02/25 12:06:18;;;;;;;6.90;3.65;;;13.60;99.90;;;;;;5083394;28;20072;-77
2024/02/25 12:08:47;;;;;;;5.53;3.30;;;13.70;99.90;;;;;;5087748;28;20054;-80
2024/02/25 12:11:17;;;;;;;4.53;2.97;;;13.80;99.90;;;;;;5089332;28;20495;-76
2024/02/25 12:13:46;;;;;;;4.82;2.85;;;13.80;99.90;;;;;;5086554;28;20376;-78
2024/02/25 12:16:14;;;;;;;4.95;2.78;;;13.80;99.90;;;;;;5089065;28;20089;-76
2024/02/25 12:18:44;;;;;;;4.50;2.72;;;13.70;99.90;;;;;;5086071;28;20052;-76
2024/02/25 12:21:13;;;;;;;6.15;2.72;;;13.70;99.90;;;;;;5089188;28;20051;-75
2024/02/25 12:23:42;;;;;;;5.95;2.92;;;13.60;99.90;;;;;;5089285;28;20036;-75
2024/02/25 12:26:11;;;;;;;6.00;2.95;;;13.50;99.90;;;;;;5082223;28;20120;-76
2024/02/25 12:28:42;;;;;;;4.95;2.90;;;13.40;99.90;;;;;;5085871;28;20036;-76
2024/02/25 12:31:11;;;;;;;5.43;3.42;;;13.40;99.90;;;;;;5087639;28;20055;-75
2024/02/25 12:33:40;;;;;;;6.38;3.58;;;13.40;99.90;;;;;;5084025;28;20094;-75
2024/02/25 12:36:10;;;;;;;5.97;3.42;;;13.30;99.90;;;;;;5085722;28;20528;-74
2024/02/25 12:38:47;;;;;;;5.88;3.25;;;13.30;99.90;;;;;;5084984;28;20147;-74
2024/02/25 12:41:18;;;;;;;5.35;3.78;;;13.30;99.90;;;;;;5096809;27;20071;-75
2024/02/25 12:43:51;;;;;;;5.25;2.95;;;13.20;99.90;;;;;;5088921;28;20048;-75
2024/02/25 12:46:21;;;;;;;8.80;3.72;;;13.20;99.90;;;;;;5087839;28;20049;-75
2024/02/25 12:48:51;;;;;;;6.13;3.30;;;13.10;99.90;;;;;;5084844;28;20055;-74
2024/02/25 12:51:22;;;;;;;11.55;5.80;;;13.10;99.90;;;;;;5085118;28;20109;-74
2024/02/25 12:53:52;;;;;;;12.70;6.68;;;13.10;99.90;;;;;;5083268;28;20051;-75
2024/02/25 12:56:21;;;;;;;42.72;15.20;;;13.10;99.90;;;;;;5087918;28;20047;-75
2024/02/25 12:58:50;;;;;;;17.58;8.50;;;13.00;99.90;;;;;;5085004;28;20487;-75
2024/02/25 13:01:22;;;;;;;11.52;6.13;;;13.10;99.90;;;;;;5098528;28;20105;-77
2024/02/25 13:03:51;;;;;;;13.48;6.13;;;13.20;99.90;;;;;;5085183;28;20499;-77